W K Kellogg Airport
KBTL : now visible

Airfield :











YOU CAN JOIN US ON...

 
LOGIN :

Register | Disclaimer

   EN    FR    IT 

 









Legend :    VFR   Marginal VFR   IFR   Intensive IFR   Very Intensive IFR
Visi :
Ceiling :
>= 8 km
>= 3000ft
5 to 8 km
1000 to 3000 ft
1500m to 5 km
500 to 1000 ft
800 to 1500m
200 to 500 ft
< 800m
< 200 ft
Symbols :   Thunderstorms  Fog  Heavy snow  Heavy precipitations  Wind > 20 kt






- Airport Elevation : 952 ft


KBTL - W K Kellogg

CURRENT METAR :
  • 161053Z 30005KT 10SM SCT040 BKN060 11/09 A2984 RMK AO2 RAE06 SLP106 P0000 T01060089

EXPIRED METARs :
  • 160953Z AUTO 29006KT 10SM -RA OVC050 11/09 A2984 RMK AO2 RAB29 SLP104 P0001 T01110094

TAF KBTL
Valid from the 16 at 12:00 until the 17 at 12:00 UTC


161144Z 1612/1712 31010KT P6SM VCSH SCT040
FM161500 28012G20KT P6SM VCSH BKN040
FM161800 29012G20KT P6SM VCSH BKN040
FM162000 29012G20KT P6SM VCSH BKN045
FM162300 29010KT P6SM VCSH BKN060
FM171000 28005KT P6SM SKC
KZAU FIR / North America



MET'MAP, your aeronautical weather chart ! - Copyright ORBIFLY December 2007 - Disclaimer

ORBIFLY MET'MAP TEAM :

Programming & Development : Alexandra Zaïnal
Concept & original design : Baudouin d'Aumeries
Assistance for programming : Marc-Olivier Méhu
Technical & hardware support : Manuel Goepfert

Contact : metmap@orbifly.com




SOURCES & CREDITS :

   NOAA       Earth
Advisory